FranceFixed distance
Nice Côte d'Azur by UTMB - 50K
27 Sep2025
Distance
55km
Finishers
1,7301,377 men353 women
Winning time
4:28:45h
Median pace
6.08km/h
Pace distribution
1,730 finishers · 3.94–12.28 km/h · mean 6.24
Every finisher ran the same 55 km course, so these paces are directly comparable.
Histogram of finisher pace. 1,730 finishers ranged from 3.94 to 12.28 kilometres per hour, with a mean of 6.24 and a median of 6.08. The busiest band is 5.5 to 6.0 kilometres per hour, with 327 finishers.
Results
Ranks 1,451–1,500 of 1,730
| Rank | Runner | Time | Pace | Cat. | Placing |
|---|---|---|---|---|---|
| 1451 | Philippidès Club Templ... | 10:44:37h | 5.12 | M45 | 1191st M · 122nd M45 |
| 1452 | 10:45:24h | 5.11 | M23 | 1192nd M · 530th M23 | |
| 1453 | 10:45:32h | 5.11 | M23 | 1193rd M · 531st M23 | |
| 1454 | Jarfalla Triathlon | 10:45:59h | 5.11 | W55 | 261st F · 7th W55 |
| 1455 | 10:46:00h | 5.11 | M35 | 1194th M · 208th M35 | |
| 1456 | Trek Tours Endurance | 10:46:38h | 5.10 | M40 | 1195th M · 148th M40 |
| 1457 | 10:46:47h | 5.10 | M23 | 1196th M · 532nd M23 | |
| 1458 | 10:46:48h | 5.10 | M23 | 1197th M · 533rd M23 | |
| 1459 | Team CAP Aventures | 10:46:55h | 5.10 | W55 | 262nd F · 8th W55 |
| 1460 | 10:47:02h | 5.10 | M45 | 1198th M · 123rd M45 | |
| 1461 | 10:47:58h | 5.09 | M23 | 1199th M · 534th M23 | |
| 1462 | Cadence Athletics | 10:48:32h | 5.09 | M23 | 1200th M · 535th M23 |
| 1463 | 10:49:14h | 5.08 | W23 | 263rd F · 134th W23 | |
| 1464 | 10:49:20h | 5.08 | W55 | 264th F · 9th W55 | |
| 1465 | 10:49:24h | 5.08 | M23 | 1201st M · 536th M23 | |
| 1466 | Guipavas Oxygene | 10:49:41h | 5.08 | W50 | 265th F · 17th W50 |
| 1467 | JC de Pinte | 10:49:57h | 5.08 | M60 | 1202nd M · 13th M60 |
| 1467 | Etenghien | 10:49:57h | 5.08 | M50 | 1202nd M · 80th M50 |
| 1469 | Etenghien | 10:49:58h | 5.08 | M55 | 1204th M · 44th M55 |
| 1470 | Browarówka Runners | 10:50:03h | 5.08 | M55 | 1205th M · 45th M55 |
| 1471 | 10:50:26h | 5.07 | W40 | 266th F · 33rd W40 | |
| 1472 | 10:51:11h | 5.07 | M35 | 1206th M · 209th M35 | |
| 1473 | 10:51:24h | 5.07 | M23 | 1207th M · 537th M23 | |
| 1474 | 10:51:48h | 5.06 | M23 | 1208th M · 538th M23 | |
| 1475 | 10:52:04h | 5.06 | M45 | 1209th M · 124th M45 | |
| 1476 | 10:52:37h | 5.06 | M23 | 1210th M · 539th M23 | |
| 1477 | 10:53:27h | 5.05 | M55 | 1211th M · 46th M55 | |
| 1478 | 10:53:39h | 5.05 | M50 | 1212th M · 81st M50 | |
| 1479 | 10:53:57h | 5.05 | W35 | 267th F · 40th W35 | |
| 1480 | Alergam de Placere | 10:53:59h | 5.05 | M50 | 1213th M · 82nd M50 |
| 1481 | Team CAP Aventure | 10:54:05h | 5.04 | M50 | 1214th M · 83rd M50 |
| 1482 | Team CAP Aventure | 10:54:09h | 5.04 | M60 | 1215th M · 14th M60 |
| 1483 | 10:54:31h | 5.04 | M60 | 1216th M · 15th M60 | |
| 1484 | 10:55:31h | 5.03 | M35 | 1217th M · 210th M35 | |
| 1485 | 10:55:40h | 5.03 | W35 | 268th F · 41st W35 | |
| 1486 | ESF | 10:56:24h | 5.03 | M60 | 1218th M · 16th M60 |
| 1487 | LA Chatvoyarde | 10:56:27h | 5.03 | W40 | 269th F · 34th W40 |
| 1488 | 10:56:51h | 5.02 | W40 | 270th F · 35th W40 | |
| 1489 | 10:57:22h | 5.02 | W23 | 271st F · 135th W23 | |
| 1490 | Barbell Union | 10:57:31h | 5.02 | W23 | 272nd F · 136th W23 |
| 1491 | 10:57:47h | 5.02 | M45 | 1219th M · 125th M45 | |
| 1492 | 10:59:18h | 5.00 | M23 | 1220th M · 540th M23 | |
| 1493 | 11:00:24h | 5.00 | M35 | 1221st M · 211th M35 | |
| 1494 | 11:00:25h | 5.00 | M35 | 1222nd M · 212th M35 | |
| 1495 | Uacb Brioux | 11:00:28h | 5.00 | M23 | 1223rd M · 541st M23 |
| 1496 | 11:00:47h | 4.99 | M40 | 1224th M · 149th M40 | |
| 1497 | 11:00:54h | 4.99 | M50 | 1225th M · 84th M50 | |
| 1498 | 11:01:28h | 4.99 | M55 | 1226th M · 47th M55 | |
| 1499 | Tatatrail | 11:02:02h | 4.99 | W55 | 273rd F · 10th W55 |
| 1500 | 11:02:18h | 4.98 | M35 | 1227th M · 213th M35 |
- 1451Philippidès Club Templ...1191st M · 122nd M45Time10:44:37hPace5.12Cat.M45
- 14521192nd M · 530th M23Time10:45:24hPace5.11Cat.M23
- 14531193rd M · 531st M23Time10:45:32hPace5.11Cat.M23
- 1454Jarfalla Triathlon261st F · 7th W55Time10:45:59hPace5.11Cat.W55
- 14551194th M · 208th M35Time10:46:00hPace5.11Cat.M35
- 1456Trek Tours Endurance1195th M · 148th M40Time10:46:38hPace5.10Cat.M40
- 14571196th M · 532nd M23Time10:46:47hPace5.10Cat.M23
- 14581197th M · 533rd M23Time10:46:48hPace5.10Cat.M23
- 1459Team CAP Aventures262nd F · 8th W55Time10:46:55hPace5.10Cat.W55
- 14601198th M · 123rd M45Time10:47:02hPace5.10Cat.M45
- 14611199th M · 534th M23Time10:47:58hPace5.09Cat.M23
- 1462Cadence Athletics1200th M · 535th M23Time10:48:32hPace5.09Cat.M23
- 1463263rd F · 134th W23Time10:49:14hPace5.08Cat.W23
- 1464264th F · 9th W55Time10:49:20hPace5.08Cat.W55
- 14651201st M · 536th M23Time10:49:24hPace5.08Cat.M23
- 1466Guipavas Oxygene265th F · 17th W50Time10:49:41hPace5.08Cat.W50
- 1467JC de Pinte1202nd M · 13th M60Time10:49:57hPace5.08Cat.M60
- 1467Etenghien1202nd M · 80th M50Time10:49:57hPace5.08Cat.M50
- 1469Etenghien1204th M · 44th M55Time10:49:58hPace5.08Cat.M55
- 1470Browarówka Runners1205th M · 45th M55Time10:50:03hPace5.08Cat.M55
- 1471266th F · 33rd W40Time10:50:26hPace5.07Cat.W40
- 14721206th M · 209th M35Time10:51:11hPace5.07Cat.M35
- 14731207th M · 537th M23Time10:51:24hPace5.07Cat.M23
- 14741208th M · 538th M23Time10:51:48hPace5.06Cat.M23
- 14751209th M · 124th M45Time10:52:04hPace5.06Cat.M45
- 14761210th M · 539th M23Time10:52:37hPace5.06Cat.M23
- 14771211th M · 46th M55Time10:53:27hPace5.05Cat.M55
- 14781212th M · 81st M50Time10:53:39hPace5.05Cat.M50
- 1479267th F · 40th W35Time10:53:57hPace5.05Cat.W35
- 1480Alergam de Placere1213th M · 82nd M50Time10:53:59hPace5.05Cat.M50
- 1481Team CAP Aventure1214th M · 83rd M50Time10:54:05hPace5.04Cat.M50
- 1482Team CAP Aventure1215th M · 14th M60Time10:54:09hPace5.04Cat.M60
- 14831216th M · 15th M60Time10:54:31hPace5.04Cat.M60
- 14841217th M · 210th M35Time10:55:31hPace5.03Cat.M35
- 1485268th F · 41st W35Time10:55:40hPace5.03Cat.W35
- 1486ESF1218th M · 16th M60Time10:56:24hPace5.03Cat.M60
- 1487LA Chatvoyarde269th F · 34th W40Time10:56:27hPace5.03Cat.W40
- 1488270th F · 35th W40Time10:56:51hPace5.02Cat.W40
- 1489271st F · 135th W23Time10:57:22hPace5.02Cat.W23
- 1490Barbell Union272nd F · 136th W23Time10:57:31hPace5.02Cat.W23
- 14911219th M · 125th M45Time10:57:47hPace5.02Cat.M45
- 14921220th M · 540th M23Time10:59:18hPace5.00Cat.M23
- 14931221st M · 211th M35Time11:00:24hPace5.00Cat.M35
- 14941222nd M · 212th M35Time11:00:25hPace5.00Cat.M35
- 1495Uacb Brioux1223rd M · 541st M23Time11:00:28hPace5.00Cat.M23
- 14961224th M · 149th M40Time11:00:47hPace4.99Cat.M40
- 14971225th M · 84th M50Time11:00:54hPace4.99Cat.M50
- 14981226th M · 47th M55Time11:01:28hPace4.99Cat.M55
- 1499Tatatrail273rd F · 10th W55Time11:02:02hPace4.99Cat.W55
- 15001227th M · 213th M35Time11:02:18hPace4.98Cat.M35
Showing ranks 1,451–1,500 of 1,730